createdAt,value
2023-09-06T00:01:18.805Z,3.13
2023-09-06T00:03:45.556Z,3.10
2023-09-06T00:06:12.241Z,2.90
2023-09-06T00:08:38.759Z,3.00
2023-09-06T00:11:06.694Z,3.53
2023-09-06T00:13:35.003Z,3.33
2023-09-06T00:16:03.329Z,3.65
2023-09-06T00:18:30.359Z,2.95
2023-09-06T00:20:58.923Z,3.25
2023-09-06T00:23:26.548Z,3.10
2023-09-06T00:25:55.025Z,3.40
2023-09-06T00:28:21.746Z,3.45
2023-09-06T00:30:48.471Z,3.42
2023-09-06T00:33:15.078Z,3.42
2023-09-06T00:35:41.850Z,3.80
2023-09-06T00:38:09.431Z,3.50
2023-09-06T00:40:37.626Z,3.50
2023-09-06T00:43:09.010Z,3.40
2023-09-06T00:45:40.809Z,3.60
2023-09-06T00:48:09.089Z,3.33
2023-09-06T00:50:37.174Z,3.63
2023-09-06T00:53:08.501Z,4.20
2023-09-06T00:55:37.542Z,3.83
2023-09-06T00:58:07.306Z,3.70
2023-09-06T01:00:34.500Z,3.60
2023-09-06T01:03:01.475Z,3.70
2023-09-06T01:05:32.420Z,3.90
2023-09-06T01:08:04.308Z,3.80
2023-09-06T01:10:30.848Z,3.58
2023-09-06T01:12:57.433Z,3.90
2023-09-06T01:15:24.085Z,3.50
2023-09-06T01:17:53.461Z,3.63
2023-09-06T01:20:30.562Z,3.65
2023-09-06T01:23:26.325Z,3.85
2023-09-06T01:25:53.741Z,3.80
2023-09-06T01:28:20.553Z,4.17
2023-09-06T01:30:48.048Z,4.00
2023-09-06T01:33:17.393Z,4.00
2023-09-06T01:35:43.975Z,3.90
2023-09-06T01:38:10.486Z,3.85
2023-09-06T01:40:37.124Z,4.30
2023-09-06T01:43:04.160Z,4.53
2023-09-06T01:45:30.756Z,3.80
2023-09-06T01:47:57.332Z,4.13
2023-09-06T01:50:23.905Z,3.90
2023-09-06T01:52:50.523Z,4.20
2023-09-06T01:55:17.108Z,4.13
2023-09-06T01:57:43.737Z,4.60
2023-09-06T02:00:28.659Z,4.57
2023-09-06T02:02:56.424Z,4.25
2023-09-06T02:05:23.526Z,4.30
2023-09-06T02:07:50.725Z,3.75
2023-09-06T02:10:17.955Z,4.93
2023-09-06T02:12:45.592Z,4.25
2023-09-06T02:15:15.160Z,4.60
2023-09-06T02:17:46.118Z,4.83
2023-09-06T02:20:18.661Z,4.28
2023-09-06T02:22:47.990Z,5.32
2023-09-06T02:25:16.458Z,4.90
2023-09-06T02:27:43.140Z,5.00
2023-09-06T02:30:10.120Z,4.93
2023-09-06T02:32:36.912Z,4.63
2023-09-06T02:35:04.094Z,4.85
2023-09-06T02:37:30.653Z,5.05
2023-09-06T02:39:57.197Z,4.82
2023-09-06T02:42:24.131Z,4.63
2023-09-06T02:44:52.038Z,4.60
2023-09-06T02:47:18.859Z,5.35
2023-09-06T02:49:47.068Z,5.50
2023-09-06T02:52:29.363Z,5.65
2023-09-06T02:54:59.368Z,5.40
2023-09-06T02:57:31.241Z,4.93
2023-09-06T02:59:58.147Z,5.22
2023-09-06T03:02:24.786Z,5.00
2023-09-06T03:05:05.205Z,4.82
2023-09-06T03:07:35.381Z,4.57
2023-09-06T03:10:03.006Z,5.03
2023-09-06T03:12:30.351Z,5.43
2023-09-06T03:14:56.886Z,5.57
2023-09-06T03:17:24.000Z,5.55
2023-09-06T03:20:00.716Z,5.37
2023-09-06T03:22:29.432Z,4.95
2023-09-06T03:24:56.537Z,5.40
2023-09-06T03:27:23.184Z,5.32
2023-09-06T03:29:52.087Z,5.00
2023-09-06T03:32:19.305Z,4.57
2023-09-06T03:34:46.582Z,5.43
2023-09-06T03:37:19.471Z,5.57
2023-09-06T03:39:47.566Z,5.38
2023-09-06T03:42:16.300Z,5.05
2023-09-06T03:44:43.997Z,5.40
2023-09-06T03:47:20.948Z,4.72
2023-09-06T03:49:47.853Z,5.45
2023-09-06T03:52:17.473Z,5.07
2023-09-06T03:54:44.069Z,5.90
2023-09-06T03:57:14.289Z,5.97
2023-09-06T03:59:42.005Z,5.40
2023-09-06T04:02:14.395Z,5.05
2023-09-06T04:04:41.059Z,5.85
2023-09-06T04:07:08.984Z,5.82
2023-09-06T04:09:38.561Z,5.50
2023-09-06T04:12:08.698Z,6.97
2023-09-06T04:14:40.020Z,6.05
2023-09-06T04:17:08.395Z,6.15
2023-09-06T04:19:37.852Z,6.10
2023-09-06T04:22:04.573Z,6.20
2023-09-06T04:24:31.082Z,6.30
2023-09-06T04:26:57.568Z,5.85
2023-09-06T04:29:25.508Z,6.68
2023-09-06T04:31:52.102Z,5.78
2023-09-06T04:34:18.652Z,6.37
2023-09-06T04:36:45.184Z,6.68
2023-09-06T04:39:11.834Z,6.65
2023-09-06T04:41:38.321Z,5.80
2023-09-06T04:44:05.306Z,6.88
2023-09-06T04:46:31.916Z,5.80
2023-09-06T04:48:58.632Z,6.50
2023-09-06T04:51:25.186Z,7.43
2023-09-06T04:53:51.751Z,6.13
2023-09-06T04:56:18.284Z,5.95
2023-09-06T04:58:46.092Z,6.73
2023-09-06T05:01:12.694Z,6.20
2023-09-06T05:03:39.474Z,6.53
2023-09-06T05:06:06.266Z,6.10
2023-09-06T05:08:33.888Z,6.72
2023-09-06T05:11:00.495Z,7.37
2023-09-06T05:13:29.833Z,7.20
2023-09-06T05:16:01.933Z,6.53
2023-09-06T05:18:28.766Z,7.13
2023-09-06T05:20:57.146Z,6.78
2023-09-06T05:23:23.750Z,6.23
2023-09-06T05:25:52.199Z,6.38
2023-09-06T05:28:20.045Z,6.53
2023-09-06T05:30:47.832Z,6.22
2023-09-06T05:33:16.117Z,6.05
2023-09-06T05:35:43.966Z,6.90
2023-09-06T05:38:10.656Z,7.25
2023-09-06T05:40:37.451Z,6.43
2023-09-06T05:43:05.171Z,6.90
2023-09-06T05:45:31.899Z,7.03
2023-09-06T05:47:58.591Z,6.03
2023-09-06T05:50:25.276Z,6.00
2023-09-06T05:52:51.779Z,7.25
2023-09-06T05:55:18.520Z,6.30
2023-09-06T05:57:45.253Z,6.97
2023-09-06T06:00:16.860Z,6.90
2023-09-06T06:02:45.747Z,6.70
2023-09-06T06:05:13.310Z,6.72
2023-09-06T06:07:40.724Z,6.60
2023-09-06T06:10:12.096Z,6.43
2023-09-06T06:12:40.242Z,6.23
2023-09-06T06:15:09.578Z,7.07
2023-09-06T06:17:37.155Z,6.47
2023-09-06T06:20:12.320Z,7.20
2023-09-06T06:22:40.928Z,6.60
2023-09-06T06:25:11.936Z,6.13
2023-09-06T06:27:40.072Z,6.47
2023-09-06T06:30:12.284Z,6.43
2023-09-06T06:32:39.508Z,6.75
2023-09-06T06:35:07.692Z,7.13
2023-09-06T06:37:35.201Z,6.93
2023-09-06T06:40:01.945Z,6.97
2023-09-06T06:42:28.673Z,6.38
2023-09-06T06:44:55.649Z,7.15
2023-09-06T06:47:22.955Z,6.43
2023-09-06T06:49:53.374Z,7.47
2023-09-06T06:52:20.044Z,7.20
2023-09-06T06:54:47.830Z,5.72
2023-09-06T06:57:14.369Z,7.20
2023-09-06T06:59:41.072Z,6.50
2023-09-06T07:02:07.630Z,6.07
2023-09-06T07:04:34.230Z,7.25
2023-09-06T07:07:00.810Z,6.90
2023-09-06T07:09:27.837Z,6.35
2023-09-06T07:11:54.499Z,6.57
2023-09-06T07:14:22.048Z,6.67
2023-09-06T07:16:48.937Z,7.15
2023-09-06T07:19:15.857Z,7.35
2023-09-06T07:21:44.097Z,6.40
2023-09-06T07:24:11.318Z,6.40
2023-09-06T07:26:38.187Z,7.20
2023-09-06T07:29:04.834Z,6.28
2023-09-06T07:31:31.504Z,5.65
2023-09-06T07:33:59.350Z,6.07
2023-09-06T07:36:25.951Z,6.20
2023-09-06T07:38:56.455Z,5.53
2023-09-06T07:41:23.355Z,6.00
2023-09-06T07:43:50.285Z,6.20
2023-09-06T07:46:16.853Z,5.93
2023-09-06T07:48:44.247Z,5.75
2023-09-06T07:51:12.150Z,5.63
2023-09-06T07:53:38.735Z,6.07
2023-09-06T07:56:07.493Z,6.15
2023-09-06T07:58:34.590Z,5.32
2023-09-06T08:03:31.353Z,5.60
2023-09-06T08:05:58.415Z,5.28
2023-09-06T08:08:25.087Z,5.25
2023-09-06T08:10:51.634Z,4.88
2023-09-06T08:13:18.171Z,4.63
2023-09-06T08:15:45.341Z,4.63
2023-09-06T08:18:12.071Z,4.90
2023-09-06T08:20:38.770Z,4.90
2023-09-06T08:23:05.418Z,4.88
2023-09-06T08:25:35.083Z,4.40
2023-09-06T08:28:01.707Z,5.67
2023-09-06T08:30:28.620Z,4.65
2023-09-06T08:32:56.453Z,4.32
2023-09-06T08:35:24.463Z,4.72
2023-09-06T08:37:51.671Z,4.82
2023-09-06T08:40:19.814Z,4.60
2023-09-06T08:42:46.546Z,4.50
2023-09-06T08:45:13.097Z,3.90
2023-09-06T08:47:40.986Z,3.92
2023-09-06T08:50:11.592Z,4.32
2023-09-06T08:52:44.778Z,3.90
2023-09-06T08:55:12.512Z,3.88
2023-09-06T08:57:40.653Z,3.97
2023-09-06T09:00:11.234Z,3.90
2023-09-06T09:02:43.647Z,3.55
2023-09-06T09:05:19.657Z,3.90
2023-09-06T09:07:51.013Z,3.80
2023-09-06T09:10:17.879Z,3.50
2023-09-06T09:12:44.596Z,3.55
2023-09-06T09:15:22.570Z,3.20
2023-09-06T09:18:00.124Z,3.13
2023-09-06T09:20:28.655Z,3.30
2023-09-06T09:23:02.340Z,3.05
2023-09-06T09:25:29.235Z,2.97
2023-09-06T09:27:57.916Z,3.78
2023-09-06T09:30:25.553Z,3.30
2023-09-06T09:33:03.055Z,3.70
2023-09-06T09:35:32.571Z,2.85
2023-09-06T09:38:01.143Z,3.03
2023-09-06T09:40:51.687Z,2.60
2023-09-06T09:43:20.539Z,3.00
2023-09-06T09:45:48.337Z,2.70
2023-09-06T09:48:17.103Z,2.95
2023-09-06T09:50:45.225Z,3.28
2023-09-06T09:55:49.378Z,3.87
2023-09-06T09:58:17.180Z,3.08
2023-09-06T10:00:44.498Z,3.42
2023-09-06T10:03:11.782Z,3.00
2023-09-06T10:05:39.324Z,2.92
2023-09-06T10:08:09.048Z,3.43
2023-09-06T10:10:38.665Z,3.20
2023-09-06T10:13:08.931Z,3.60
2023-09-06T10:15:37.041Z,2.45
2023-09-06T10:18:05.802Z,3.00
2023-09-06T10:20:35.883Z,2.93
2023-09-06T10:23:02.597Z,3.28
2023-09-06T10:25:29.515Z,3.22
2023-09-06T10:27:57.355Z,2.60
2023-09-06T10:30:30.336Z,3.25
2023-09-06T10:32:57.100Z,2.80
2023-09-06T10:35:31.328Z,3.72
2023-09-06T10:38:17.084Z,2.92
2023-09-06T10:40:52.544Z,2.60
2023-09-06T10:43:30.326Z,2.80
2023-09-06T10:46:06.448Z,2.43
2023-09-06T10:48:33.626Z,2.10
2023-09-06T10:51:07.756Z,2.50
2023-09-06T10:53:37.991Z,2.17
2023-09-06T10:56:06.462Z,3.03
2023-09-06T10:58:38.044Z,2.43
2023-09-06T11:01:19.941Z,2.25
2023-09-06T11:03:52.387Z,3.78
2023-09-06T11:06:20.332Z,2.47
2023-09-06T11:08:48.346Z,2.70
2023-09-06T11:11:15.510Z,2.00
2023-09-06T11:13:45.977Z,2.30
2023-09-06T11:16:17.245Z,2.60
2023-09-06T11:18:48.336Z,2.55
2023-09-06T11:21:21.841Z,2.67
2023-09-06T11:23:53.762Z,2.40
2023-09-06T11:26:20.760Z,2.33
2023-09-06T11:28:51.748Z,2.45
2023-09-06T11:31:26.924Z,2.50
2023-09-06T11:34:04.936Z,2.40
2023-09-06T11:36:33.481Z,2.60
2023-09-06T11:39:33.822Z,1.90
2023-09-06T11:42:02.424Z,2.20
2023-09-06T11:44:29.258Z,2.30
2023-09-06T11:46:55.868Z,2.92
2023-09-06T11:49:26.280Z,2.13
2023-09-06T11:51:55.239Z,2.33
2023-09-06T11:54:27.991Z,1.95
2023-09-06T11:56:55.278Z,2.10
2023-09-06T11:59:23.490Z,2.40
2023-09-06T12:01:58.247Z,2.53
2023-09-06T12:04:27.819Z,2.10
2023-09-06T12:06:56.666Z,2.38
2023-09-06T12:09:24.887Z,2.75
2023-09-06T12:11:52.469Z,2.63
2023-09-06T12:14:19.073Z,2.17
2023-09-06T12:16:45.964Z,1.83
2023-09-06T12:19:13.666Z,2.25
2023-09-06T12:21:40.378Z,1.90
2023-09-06T12:24:07.022Z,2.00
2023-09-06T12:26:34.586Z,1.77
2023-09-06T12:29:03.836Z,2.88
2023-09-06T12:31:31.799Z,2.30
2023-09-06T12:33:58.496Z,2.33
2023-09-06T12:36:25.716Z,3.10
2023-09-06T12:38:53.355Z,2.60
2023-09-06T12:41:20.076Z,1.67
2023-09-06T12:43:47.504Z,1.80
2023-09-06T12:46:14.436Z,2.25
2023-09-06T12:48:43.729Z,1.70
2023-09-06T12:51:11.148Z,2.63
2023-09-06T12:53:37.819Z,1.90
2023-09-06T12:56:04.692Z,1.85
2023-09-06T12:58:31.825Z,1.80
2023-09-06T13:00:59.061Z,2.10
2023-09-06T13:03:26.068Z,1.93
2023-09-06T13:05:53.005Z,2.45
2023-09-06T13:08:20.909Z,2.40
2023-09-06T13:10:48.136Z,2.30
2023-09-06T13:13:14.750Z,2.40
2023-09-06T13:15:41.365Z,2.20
2023-09-06T13:18:08.678Z,2.05
2023-09-06T13:20:35.498Z,2.30
2023-09-06T13:23:02.353Z,2.10
2023-09-06T13:25:29.045Z,2.42
2023-09-06T13:27:55.744Z,2.13
2023-09-06T13:30:22.416Z,2.35
2023-09-06T13:32:49.149Z,2.72
2023-09-06T13:35:15.819Z,2.00
2023-09-06T13:37:42.364Z,2.30
2023-09-06T13:40:09.806Z,2.60
2023-09-06T13:42:36.572Z,2.47
2023-09-06T13:45:03.877Z,2.30
2023-09-06T13:47:30.460Z,2.47
2023-09-06T13:49:58.688Z,2.30
2023-09-06T13:52:25.292Z,2.53
2023-09-06T13:54:51.944Z,2.45
2023-09-06T13:57:18.459Z,2.28
2023-09-06T13:59:44.973Z,2.28
2023-09-06T14:02:11.631Z,2.40
2023-09-06T14:04:38.739Z,2.57
2023-09-06T14:07:05.350Z,2.20
2023-09-06T14:09:32.051Z,2.80
2023-09-06T14:11:58.731Z,2.20
2023-09-06T14:14:25.302Z,2.40
2023-09-06T14:16:52.421Z,2.67
2023-09-06T14:19:19.088Z,2.83
2023-09-06T14:21:48.282Z,2.72
2023-09-06T14:24:18.582Z,2.72
2023-09-06T14:26:45.211Z,2.88
2023-09-06T14:29:13.474Z,2.43
2023-09-06T14:31:40.682Z,2.50
2023-09-06T14:34:07.383Z,2.65
2023-09-06T14:36:34.018Z,2.70
2023-09-06T14:39:02.460Z,2.80
2023-09-06T14:41:30.569Z,2.97
2023-09-06T14:43:58.616Z,3.05
2023-09-06T14:46:25.566Z,3.40
2023-09-06T14:48:53.239Z,2.75
2023-09-06T14:51:20.186Z,2.75
2023-09-06T14:53:46.952Z,3.10
2023-09-06T14:56:16.161Z,2.67
2023-09-06T14:58:43.323Z,2.78
2023-09-06T15:01:09.986Z,2.30
2023-09-06T15:03:36.834Z,2.50
2023-09-06T15:06:07.619Z,2.40
2023-09-06T15:08:34.302Z,2.63
2023-09-06T15:11:01.082Z,2.47
2023-09-06T15:13:27.955Z,2.45
2023-09-06T15:15:55.131Z,3.17
2023-09-06T15:18:21.998Z,2.60
2023-09-06T15:20:49.340Z,2.78
2023-09-06T15:23:16.262Z,6.07
2023-09-06T15:25:45.243Z,7.72
2023-09-06T15:28:12.088Z,3.10
2023-09-06T15:30:38.836Z,2.50
2023-09-06T15:33:05.848Z,2.60
2023-09-06T15:35:32.599Z,2.85
2023-09-06T15:38:12.735Z,2.97
2023-09-06T15:40:39.764Z,2.85
2023-09-06T15:43:06.745Z,3.00
2023-09-06T15:45:33.851Z,2.85
2023-09-06T15:48:00.927Z,2.78
2023-09-06T15:50:29.637Z,2.92
2023-09-06T15:52:56.860Z,2.83
2023-09-06T15:55:23.941Z,2.93
2023-09-06T15:57:51.178Z,2.63
2023-09-06T16:00:30.939Z,3.00
2023-09-06T16:02:59.590Z,3.03
2023-09-06T16:05:26.622Z,2.25
2023-09-06T16:07:54.543Z,2.90
2023-09-06T16:10:21.324Z,2.70
2023-09-06T16:12:49.767Z,2.63
2023-09-06T16:15:18.220Z,2.30
2023-09-06T16:17:46.310Z,2.10
2023-09-06T16:20:13.542Z,2.63
2023-09-06T16:22:40.212Z,2.22
2023-09-06T16:25:09.198Z,2.33
2023-09-06T16:27:36.026Z,2.47
2023-09-06T16:30:06.800Z,2.72
2023-09-06T16:32:33.832Z,2.83
2023-09-06T16:35:00.971Z,2.30
2023-09-06T16:37:27.701Z,3.40
2023-09-06T16:39:54.328Z,3.08
2023-09-06T16:42:22.380Z,2.70
2023-09-06T16:44:49.015Z,3.10
2023-09-06T16:47:15.603Z,2.42
2023-09-06T16:49:48.285Z,2.20
2023-09-06T16:52:15.471Z,2.60
2023-09-06T16:54:42.157Z,2.55
2023-09-06T16:57:08.808Z,2.63
2023-09-06T16:59:35.366Z,2.13
2023-09-06T17:02:01.992Z,2.80
2023-09-06T17:04:28.589Z,2.17
2023-09-06T17:06:55.210Z,2.50
2023-09-06T17:09:21.802Z,2.40
2023-09-06T17:11:48.370Z,2.28
2023-09-06T17:14:15.059Z,2.47
2023-09-06T17:16:42.268Z,2.20
2023-09-06T17:19:11.046Z,2.35
2023-09-06T17:21:41.124Z,2.50
2023-09-06T17:24:09.832Z,2.33
2023-09-06T17:26:42.727Z,2.20
2023-09-06T17:29:15.892Z,2.63
2023-09-06T17:31:48.954Z,2.70
2023-09-06T17:34:15.674Z,2.57
2023-09-06T17:36:42.647Z,3.30
2023-09-06T17:39:10.760Z,2.90
2023-09-06T17:41:39.024Z,3.03
2023-09-06T17:44:07.469Z,2.65
2023-09-06T17:46:35.109Z,2.90
2023-09-06T17:49:03.008Z,2.55
2023-09-06T17:51:31.680Z,2.97
2023-09-06T17:54:00.344Z,3.40
2023-09-06T17:56:28.064Z,2.90
2023-09-06T17:58:55.303Z,3.33
2023-09-06T18:01:24.121Z,3.28
2023-09-06T18:03:58.725Z,3.90
2023-09-06T18:06:27.119Z,4.25
2023-09-06T18:08:59.329Z,3.67
2023-09-06T18:11:26.360Z,3.20
2023-09-06T18:13:53.550Z,3.53
2023-09-06T18:16:21.231Z,3.13
2023-09-06T18:18:49.492Z,2.85
2023-09-06T18:21:17.517Z,2.88
2023-09-06T18:23:45.987Z,2.90
2023-09-06T18:26:13.538Z,3.75
2023-09-06T18:28:41.093Z,3.15
2023-09-06T18:31:08.818Z,3.28
2023-09-06T18:33:35.644Z,3.30
2023-09-06T18:36:02.313Z,3.77
2023-09-06T18:38:29.382Z,3.17
2023-09-06T18:40:59.603Z,3.47
2023-09-06T18:43:26.420Z,3.30
2023-09-06T18:45:53.143Z,3.22
2023-09-06T18:48:23.325Z,3.30
2023-09-06T18:50:51.131Z,4.03
2023-09-06T18:53:18.005Z,4.28
2023-09-06T18:55:48.387Z,4.60
2023-09-06T18:58:18.385Z,4.30
2023-09-06T19:00:45.328Z,4.70
2023-09-06T19:03:15.069Z,4.85
2023-09-06T19:05:43.297Z,4.05
2023-09-06T19:08:15.710Z,4.63
2023-09-06T19:10:43.432Z,4.10
2023-09-06T19:13:11.555Z,3.90
2023-09-06T19:15:39.530Z,4.10
2023-09-06T19:18:07.572Z,5.05
2023-09-06T19:20:37.276Z,3.90
2023-09-06T19:23:07.634Z,3.95
2023-09-06T19:25:38.194Z,4.20
2023-09-06T19:28:08.046Z,3.83
2023-09-06T19:30:34.829Z,3.33
2023-09-06T19:33:01.588Z,3.17
2023-09-06T19:35:28.219Z,3.92
2023-09-06T19:37:54.865Z,4.50
2023-09-06T19:40:22.462Z,3.63
2023-09-06T19:42:52.695Z,4.70
2023-09-06T19:45:19.371Z,3.95
2023-09-06T19:47:47.593Z,3.85
2023-09-06T19:50:14.319Z,3.80
2023-09-06T19:52:40.846Z,3.90
2023-09-06T19:55:07.994Z,4.20
2023-09-06T19:57:34.974Z,4.15
2023-09-06T20:00:02.236Z,4.15
2023-09-06T20:02:29.022Z,4.60
2023-09-06T20:04:55.812Z,4.20
2023-09-06T20:07:22.430Z,4.57
2023-09-06T20:09:48.993Z,4.40
2023-09-06T20:12:15.524Z,4.90
2023-09-06T20:14:42.067Z,4.33
2023-09-06T20:17:08.701Z,4.53
2023-09-06T20:19:35.241Z,3.92
2023-09-06T20:22:01.891Z,4.53
2023-09-06T20:24:28.454Z,4.20
2023-09-06T20:26:55.114Z,4.20
2023-09-06T20:29:27.127Z,3.80
2023-09-06T20:31:53.750Z,4.20
2023-09-06T20:34:20.306Z,4.55
2023-09-06T20:36:47.389Z,5.10
2023-09-06T20:39:13.990Z,4.43
2023-09-06T20:41:42.308Z,3.60
2023-09-06T20:44:08.950Z,4.20
2023-09-06T20:46:35.588Z,4.00
2023-09-06T20:49:02.309Z,3.83
2023-09-06T20:51:28.850Z,3.90
2023-09-06T20:53:55.447Z,3.40
2023-09-06T20:56:21.983Z,3.80
2023-09-06T20:58:48.553Z,3.28
2023-09-06T21:01:19.432Z,3.05
2023-09-06T21:03:47.036Z,2.70
2023-09-06T21:06:13.665Z,2.50
2023-09-06T21:08:40.622Z,3.00
2023-09-06T21:11:07.222Z,3.10
2023-09-06T21:13:36.649Z,2.92
2023-09-06T21:16:03.369Z,2.80
2023-09-06T21:18:30.894Z,2.40
2023-09-06T21:20:58.039Z,2.60
2023-09-06T21:23:24.714Z,2.30
2023-09-06T21:25:51.471Z,2.70
2023-09-06T21:28:18.093Z,3.07
2023-09-06T21:30:47.136Z,2.85
2023-09-06T21:33:14.818Z,2.92
2023-09-06T21:35:43.091Z,2.55
2023-09-06T21:38:10.381Z,2.60
2023-09-06T21:40:45.350Z,3.17
2023-09-06T21:43:17.678Z,3.20
2023-09-06T21:45:45.418Z,2.60
2023-09-06T21:48:12.549Z,2.60
2023-09-06T21:50:41.392Z,2.38
2023-09-06T21:53:08.389Z,2.70
2023-09-06T21:55:35.229Z,2.60
2023-09-06T21:58:09.800Z,3.72
2023-09-06T22:00:37.643Z,2.65
2023-09-06T22:03:04.756Z,3.15
2023-09-06T22:05:31.464Z,3.50
2023-09-06T22:07:58.063Z,3.53
2023-09-06T22:10:24.782Z,3.65
2023-09-06T22:12:51.988Z,3.47
2023-09-06T22:15:18.937Z,3.97
2023-09-06T22:17:45.581Z,3.40
2023-09-06T22:20:12.547Z,3.97
2023-09-06T22:22:39.406Z,3.88
2023-09-06T22:25:07.325Z,4.10
2023-09-06T22:27:34.600Z,3.85
2023-09-06T22:30:01.727Z,4.43
2023-09-06T22:32:28.329Z,4.45
2023-09-06T22:34:55.066Z,4.53
2023-09-06T22:37:21.740Z,4.53
2023-09-06T22:39:48.443Z,4.60
2023-09-06T22:42:15.061Z,4.50
2023-09-06T22:44:41.818Z,4.30
2023-09-06T22:47:09.656Z,4.90
2023-09-06T22:49:38.663Z,4.53
2023-09-06T22:52:07.743Z,4.70
2023-09-06T22:54:39.667Z,4.47
2023-09-06T22:57:07.619Z,5.18
2023-09-06T22:59:35.020Z,4.63
2023-09-06T23:02:01.647Z,5.03
2023-09-06T23:04:28.717Z,4.90
2023-09-06T23:06:55.745Z,5.27
2023-09-06T23:09:22.442Z,5.72
2023-09-06T23:11:56.907Z,5.03
2023-09-06T23:14:24.851Z,5.20
2023-09-06T23:16:52.196Z,5.32
2023-09-06T23:19:28.796Z,5.37
2023-09-06T23:21:59.774Z,5.32
2023-09-06T23:24:28.861Z,6.18
2023-09-06T23:27:00.337Z,5.47
2023-09-06T23:29:35.842Z,5.07
2023-09-06T23:32:06.022Z,5.90
2023-09-06T23:34:35.365Z,5.70
2023-09-06T23:37:05.289Z,6.25
2023-09-06T23:39:34.366Z,5.25
2023-09-06T23:42:10.846Z,6.68
2023-09-06T23:44:43.287Z,5.90
2023-09-06T23:47:10.581Z,5.38
2023-09-06T23:49:38.188Z,6.10
2023-09-06T23:52:05.718Z,6.82
2023-09-06T23:54:44.739Z,6.10
2023-09-06T23:57:14.235Z,6.37
2023-09-06T23:59:40.812Z,7.25
